createdAt,value
2023-03-26T00:00:54.370Z,7.30
2023-03-26T00:02:59.474Z,7.40
2023-03-26T00:05:04.554Z,7.40
2023-03-26T00:07:10.497Z,7.40
2023-03-26T00:09:15.937Z,7.40
2023-03-26T00:11:23.514Z,7.40
2023-03-26T00:13:32.297Z,7.40
2023-03-26T00:15:41.121Z,7.40
2023-03-26T00:17:49.148Z,7.40
2023-03-26T00:19:54.890Z,7.40
2023-03-26T00:22:00.725Z,7.40
2023-03-26T00:24:10.308Z,7.50
2023-03-26T00:26:16.541Z,7.40
2023-03-26T00:28:22.518Z,7.40
2023-03-26T00:30:30.491Z,7.50
2023-03-26T00:32:35.540Z,7.50
2023-03-26T00:34:42.619Z,7.50
2023-03-26T00:36:47.826Z,7.50
2023-03-26T00:38:54.075Z,7.50
2023-03-26T00:41:06.322Z,7.50
2023-03-26T00:43:19.205Z,7.50
2023-03-26T00:45:24.666Z,7.50
2023-03-26T00:47:32.824Z,7.50
2023-03-26T00:49:38.186Z,7.50
2023-03-26T00:51:44.468Z,7.50
2023-03-26T00:53:52.950Z,7.50
2023-03-26T00:56:00.538Z,7.50
2023-03-26T00:58:05.723Z,7.50
2023-03-26T01:00:16.147Z,7.50
2023-03-26T01:02:23.179Z,7.50
2023-03-26T01:04:35.223Z,7.60
2023-03-26T01:06:45.612Z,7.50
2023-03-26T01:08:54.760Z,7.50
2023-03-26T01:11:07.580Z,7.50
2023-03-26T01:13:13.356Z,7.50
2023-03-26T01:15:18.752Z,7.50
2023-03-26T01:17:25.032Z,7.50
2023-03-26T01:19:42.682Z,7.50
2023-03-26T01:21:47.689Z,7.50
2023-03-26T01:24:05.369Z,7.50
2023-03-26T01:26:23.388Z,7.50
2023-03-26T01:28:32.669Z,7.50
2023-03-26T01:30:43.298Z,7.60
2023-03-26T01:33:05.036Z,7.50
2023-03-26T01:35:30.341Z,7.50
2023-03-26T01:37:47.220Z,7.50
2023-03-26T01:40:07.034Z,7.50
2023-03-26T01:42:18.352Z,7.50
2023-03-26T01:44:31.340Z,7.50
2023-03-26T01:46:38.127Z,7.40
2023-03-26T01:48:47.796Z,7.40
2023-03-26T01:50:56.445Z,7.40
2023-03-26T01:53:01.591Z,7.40
2023-03-26T01:55:14.292Z,7.40
2023-03-26T01:57:27.172Z,7.30
2023-03-26T01:59:59.372Z,7.30
2023-03-26T02:02:12.970Z,7.40
2023-03-26T02:04:28.077Z,7.30
2023-03-26T02:06:42.765Z,7.20
2023-03-26T02:08:54.980Z,7.30
2023-03-26T02:11:05.296Z,7.30
2023-03-26T02:13:10.780Z,7.20
2023-03-26T02:15:17.609Z,7.10
2023-03-26T02:17:24.522Z,7.10
2023-03-26T02:19:30.069Z,7.10
2023-03-26T02:21:35.883Z,7.10
2023-03-26T02:23:42.149Z,7.10
2023-03-26T02:25:47.312Z,7.20
2023-03-26T02:27:56.698Z,7.20
2023-03-26T02:30:02.554Z,7.20
2023-03-26T02:32:09.327Z,7.20
2023-03-26T02:34:14.408Z,7.10
2023-03-26T02:36:29.936Z,7.10
2023-03-26T02:38:38.764Z,7.10
2023-03-26T02:40:45.319Z,7.10
2023-03-26T02:42:51.004Z,7.10
2023-03-26T02:44:58.787Z,7.10
2023-03-26T02:47:29.787Z,7.10
2023-03-26T02:50:13.747Z,7.20
2023-03-26T02:52:43.207Z,7.20
2023-03-26T02:54:48.851Z,7.10
2023-03-26T02:56:56.952Z,7.10
2023-03-26T02:59:34.665Z,7.10
2023-03-26T03:02:02.362Z,7.10
2023-03-26T03:04:10.447Z,7.10
2023-03-26T03:06:17.264Z,7.10
2023-03-26T03:08:30.212Z,7.10
2023-03-26T03:11:00.722Z,7.10
2023-03-26T03:13:16.701Z,7.00
2023-03-26T03:15:22.716Z,7.00
2023-03-26T03:17:30.506Z,7.00
2023-03-26T03:19:35.674Z,7.00
2023-03-26T03:21:41.323Z,6.90
2023-03-26T03:23:47.001Z,6.90
2023-03-26T03:25:53.570Z,6.90
2023-03-26T03:27:59.024Z,6.90
2023-03-26T03:30:04.856Z,6.80
2023-03-26T03:32:25.465Z,6.80
2023-03-26T03:34:38.835Z,6.80
2023-03-26T03:36:48.877Z,6.80
2023-03-26T03:39:11.305Z,6.80
2023-03-26T03:41:18.920Z,6.70
2023-03-26T03:43:25.083Z,6.60
2023-03-26T03:45:41.324Z,6.70
2023-03-26T03:47:54.218Z,6.60
2023-03-26T03:50:13.793Z,6.60
2023-03-26T03:52:29.031Z,6.60
2023-03-26T03:54:34.714Z,6.60
2023-03-26T03:56:47.705Z,6.60
2023-03-26T03:59:18.702Z,6.60
2023-03-26T04:01:25.312Z,6.50
2023-03-26T04:03:39.903Z,6.50
2023-03-26T04:05:55.592Z,6.50
2023-03-26T04:08:03.922Z,6.50
2023-03-26T04:10:25.041Z,6.50
2023-03-26T04:13:05.781Z,6.50
2023-03-26T04:15:26.635Z,6.50
2023-03-26T04:17:32.125Z,6.40
2023-03-26T04:19:37.530Z,6.50
2023-03-26T04:21:49.892Z,6.40
2023-03-26T04:23:57.876Z,6.40
2023-03-26T04:26:22.792Z,6.40
2023-03-26T04:28:48.721Z,6.30
2023-03-26T04:31:04.987Z,6.40
2023-03-26T04:33:17.142Z,6.40
2023-03-26T04:35:23.816Z,6.40
2023-03-26T04:37:40.372Z,6.40
2023-03-26T04:39:55.184Z,6.30
2023-03-26T04:42:22.766Z,6.20
2023-03-26T04:44:42.474Z,6.10
2023-03-26T04:46:53.249Z,6.00
2023-03-26T04:49:05.296Z,6.00
2023-03-26T04:51:18.394Z,6.00
2023-03-26T04:53:28.003Z,5.80
2023-03-26T04:55:56.214Z,5.70
2023-03-26T04:58:22.645Z,5.80
2023-03-26T05:00:35.525Z,5.80
2023-03-26T05:02:42.265Z,5.80
2023-03-26T05:04:48.622Z,5.80
2023-03-26T05:06:54.302Z,5.90
2023-03-26T05:09:16.344Z,5.90
2023-03-26T05:11:51.082Z,5.90
2023-03-26T05:13:57.642Z,5.90
2023-03-26T05:16:03.054Z,6.00
2023-03-26T05:18:20.711Z,6.00
2023-03-26T05:20:33.469Z,6.20
2023-03-26T05:22:39.504Z,6.30
2023-03-26T05:24:56.520Z,6.30
2023-03-26T05:27:01.686Z,6.40
2023-03-26T05:29:07.907Z,6.40
2023-03-26T05:31:18.306Z,6.40
2023-03-26T05:33:26.530Z,6.40
2023-03-26T05:35:38.870Z,6.50
2023-03-26T05:37:48.409Z,6.50
2023-03-26T05:39:59.843Z,6.50
2023-03-26T05:42:19.295Z,6.50
2023-03-26T05:44:47.652Z,6.50
2023-03-26T05:47:00.500Z,6.50
2023-03-26T05:49:07.317Z,6.60
2023-03-26T05:51:15.725Z,6.60
2023-03-26T05:53:33.059Z,6.60
2023-03-26T05:56:07.561Z,6.50
2023-03-26T05:58:34.210Z,6.50
2023-03-26T06:01:06.102Z,6.60
2023-03-26T06:03:31.364Z,6.60
2023-03-26T06:05:49.635Z,6.60
2023-03-26T06:07:58.507Z,6.60
2023-03-26T06:10:18.181Z,6.70
2023-03-26T06:12:27.067Z,6.70
2023-03-26T06:14:32.161Z,6.70
2023-03-26T06:16:48.412Z,6.70
2023-03-26T06:18:58.575Z,6.80
2023-03-26T06:21:17.737Z,6.80
2023-03-26T06:23:28.214Z,6.70
2023-03-26T06:25:44.462Z,6.80
2023-03-26T06:28:04.045Z,6.80
2023-03-26T06:30:35.334Z,6.80
2023-03-26T06:32:54.747Z,6.80
2023-03-26T06:35:03.820Z,6.80
2023-03-26T06:37:08.940Z,6.90
2023-03-26T06:39:14.238Z,6.90
2023-03-26T06:41:27.854Z,6.90
2023-03-26T06:43:42.041Z,7.00
2023-03-26T06:45:54.629Z,7.00
2023-03-26T06:48:18.863Z,7.00
2023-03-26T06:50:42.572Z,7.00
2023-03-26T06:53:07.966Z,7.10
2023-03-26T06:55:34.954Z,7.10
2023-03-26T06:57:45.470Z,7.20
2023-03-26T07:00:14.797Z,7.20
2023-03-26T07:02:43.337Z,7.30
2023-03-26T07:05:08.102Z,7.30
2023-03-26T07:07:32.490Z,7.30
2023-03-26T07:09:56.636Z,7.30
2023-03-26T07:12:22.225Z,7.30
2023-03-26T07:14:41.790Z,7.40
2023-03-26T07:17:09.626Z,7.40
2023-03-26T07:19:24.924Z,7.40
2023-03-26T07:21:31.688Z,7.40
2023-03-26T07:23:39.319Z,7.50
2023-03-26T07:25:57.724Z,7.50
2023-03-26T07:28:25.593Z,7.50
2023-03-26T07:30:56.224Z,7.60
2023-03-26T07:33:24.154Z,7.60
2023-03-26T07:36:04.200Z,7.60
2023-03-26T07:38:45.441Z,7.60
2023-03-26T07:41:16.203Z,7.70
2023-03-26T07:44:06.495Z,7.70
2023-03-26T07:46:35.180Z,7.70
2023-03-26T07:49:04.712Z,7.80
2023-03-26T07:51:20.496Z,7.80
2023-03-26T07:53:43.429Z,7.80
2023-03-26T07:56:16.837Z,7.90
2023-03-26T07:58:58.949Z,7.90
2023-03-26T08:01:39.951Z,8.00
2023-03-26T08:04:25.703Z,8.00
2023-03-26T08:06:56.575Z,8.10
2023-03-26T08:09:33.664Z,8.10
2023-03-26T08:11:50.948Z,8.20
2023-03-26T08:14:07.028Z,8.20
2023-03-26T08:16:20.691Z,8.20
2023-03-26T08:18:44.829Z,8.30
2023-03-26T08:20:58.440Z,8.30
2023-03-26T08:23:10.649Z,8.30
2023-03-26T08:25:30.022Z,8.30
2023-03-26T08:27:43.955Z,8.40
2023-03-26T08:29:58.230Z,8.40
2023-03-26T08:32:06.791Z,8.40
2023-03-26T08:34:14.581Z,8.40
2023-03-26T08:36:22.315Z,8.40
2023-03-26T08:38:27.442Z,8.50
2023-03-26T08:41:32.950Z,8.50
2023-03-26T08:44:31.405Z,8.60
2023-03-26T08:47:24.645Z,8.60
2023-03-26T08:50:23.628Z,8.60
2023-03-26T08:53:24.904Z,8.60
2023-03-26T08:55:46.527Z,8.60
2023-03-26T08:58:36.989Z,8.60
2023-03-26T09:01:12.319Z,8.70
2023-03-26T09:03:41.790Z,8.70
2023-03-26T09:06:35.760Z,8.70
2023-03-26T09:09:30.842Z,8.70
2023-03-26T09:12:21.234Z,8.70
2023-03-26T09:15:21.469Z,8.70
2023-03-26T09:18:23.970Z,8.70
2023-03-26T09:21:28.426Z,8.70
2023-03-26T09:24:29.132Z,8.80
2023-03-26T09:26:53.528Z,8.80
2023-03-26T09:29:41.980Z,8.80
2023-03-26T09:32:19.413Z,8.80
2023-03-26T09:34:33.451Z,8.70
2023-03-26T09:36:58.317Z,8.70
2023-03-26T09:39:18.550Z,8.70
2023-03-26T09:41:45.980Z,8.80
2023-03-26T09:44:27.402Z,8.70
2023-03-26T09:46:41.422Z,8.80
2023-03-26T09:49:17.511Z,8.80
2023-03-26T09:51:46.134Z,8.70
2023-03-26T09:54:44.551Z,8.70
2023-03-26T09:57:07.914Z,8.70
2023-03-26T09:59:54.099Z,8.60
2023-03-26T10:02:14.313Z,8.50
2023-03-26T10:04:55.824Z,8.40
2023-03-26T10:07:07.259Z,8.20
2023-03-26T10:09:38.521Z,7.90
2023-03-26T10:12:18.628Z,7.80
2023-03-26T10:14:31.746Z,7.60
2023-03-26T10:16:54.475Z,7.60
2023-03-26T10:19:41.399Z,7.60
2023-03-26T10:21:56.329Z,7.60
2023-03-26T10:24:17.829Z,7.70
2023-03-26T10:27:09.330Z,7.70
2023-03-26T10:29:42.281Z,7.70
2023-03-26T10:31:51.626Z,7.60
2023-03-26T10:34:06.977Z,7.60
2023-03-26T10:36:32.273Z,7.70
2023-03-26T10:39:06.122Z,7.80
2023-03-26T10:41:20.739Z,7.70
2023-03-26T10:44:07.516Z,7.70
2023-03-26T10:46:42.972Z,7.70
2023-03-26T10:49:39.898Z,7.80
2023-03-26T10:51:53.628Z,7.80
2023-03-26T10:54:06.136Z,7.80
2023-03-26T10:56:25.631Z,7.80
2023-03-26T10:58:48.344Z,7.80
2023-03-26T11:01:04.744Z,7.80
2023-03-26T11:03:57.006Z,7.80
2023-03-26T11:06:19.502Z,7.90
2023-03-26T11:08:33.267Z,7.90
2023-03-26T11:10:51.710Z,7.90
2023-03-26T11:13:07.187Z,7.90
2023-03-26T11:15:26.515Z,7.90
2023-03-26T11:17:46.508Z,8.00
2023-03-26T11:20:01.096Z,8.00
2023-03-26T11:22:22.309Z,7.90
2023-03-26T11:25:19.863Z,7.90
2023-03-26T11:27:42.233Z,7.90
2023-03-26T11:30:06.313Z,8.00
2023-03-26T11:32:19.352Z,8.00
2023-03-26T11:34:37.428Z,8.00
2023-03-26T11:36:51.040Z,8.00
2023-03-26T11:39:00.736Z,8.00
2023-03-26T11:41:23.059Z,8.10
2023-03-26T11:43:39.625Z,8.10
2023-03-26T11:45:48.010Z,8.20
2023-03-26T11:47:58.065Z,8.20
2023-03-26T11:50:05.090Z,8.30
2023-03-26T11:52:15.857Z,8.50
2023-03-26T11:54:21.287Z,8.60
2023-03-26T11:56:33.877Z,8.60
2023-03-26T11:58:50.874Z,8.60
2023-03-26T12:00:57.540Z,8.70
2023-03-26T12:03:03.196Z,8.70
2023-03-26T12:05:21.438Z,8.80
2023-03-26T12:07:35.082Z,9.00
2023-03-26T12:09:40.178Z,9.00
2023-03-26T12:11:46.244Z,9.00
2023-03-26T12:13:57.898Z,9.10
2023-03-26T12:16:10.869Z,9.10
2023-03-26T12:18:28.821Z,9.00
2023-03-26T12:20:39.773Z,9.00
2023-03-26T12:22:47.961Z,8.90
2023-03-26T12:25:06.453Z,9.00
2023-03-26T12:27:28.605Z,9.20
2023-03-26T12:29:35.096Z,9.40
2023-03-26T12:31:58.172Z,9.40
2023-03-26T12:34:16.924Z,9.30
2023-03-26T12:36:29.331Z,9.30
2023-03-26T12:38:39.326Z,9.20
2023-03-26T12:40:45.229Z,9.10
2023-03-26T12:44:50.482Z,9.00
2023-03-26T12:45:25.621Z,9.00
2023-03-26T12:47:59.920Z,9.00
2023-03-26T12:49:59.327Z,9.00
2023-03-26T12:52:20.997Z,9.00
2023-03-26T12:54:48.559Z,9.10
2023-03-26T12:57:12.326Z,9.10
2023-03-26T12:59:37.116Z,9.00
2023-03-26T13:01:57.145Z,9.10
2023-03-26T13:04:37.940Z,9.20
2023-03-26T13:07:02.206Z,9.20
2023-03-26T13:09:44.512Z,9.30
2023-03-26T13:12:12.334Z,9.40
2023-03-26T13:14:47.507Z,9.30
2023-03-26T13:16:58.517Z,9.30
2023-03-26T13:19:11.426Z,9.20
2023-03-26T13:21:24.600Z,9.20
2023-03-26T13:23:44.239Z,9.40
2023-03-26T13:25:58.558Z,9.10
2023-03-26T13:28:29.209Z,9.10
2023-03-26T13:30:42.680Z,9.20
2023-03-26T13:33:01.987Z,9.50
2023-03-26T13:35:25.312Z,9.60
2023-03-26T13:37:37.520Z,9.80
2023-03-26T13:39:58.556Z,9.90
2023-03-26T13:42:21.961Z,9.70
2023-03-26T13:44:43.004Z,9.80
2023-03-26T13:46:55.138Z,9.80
2023-03-26T13:49:05.836Z,9.80
2023-03-26T13:51:17.506Z,9.70
2023-03-26T13:53:28.582Z,9.80
2023-03-26T13:55:37.826Z,9.80
2023-03-26T13:57:49.620Z,9.80
2023-03-26T14:00:04.762Z,9.90
2023-03-26T14:02:27.017Z,10.00
2023-03-26T14:04:38.699Z,10.00
2023-03-26T14:06:57.594Z,10.10
2023-03-26T14:09:08.366Z,10.20
2023-03-26T14:11:19.478Z,10.30
2023-03-26T14:13:30.080Z,10.30
2023-03-26T14:15:44.932Z,10.20
2023-03-26T14:17:57.656Z,10.10
2023-03-26T14:20:40.385Z,10.00
2023-03-26T14:23:05.847Z,10.00
2023-03-26T14:25:33.926Z,10.00
2023-03-26T14:28:03.397Z,10.00
2023-03-26T14:30:46.145Z,9.90
2023-03-26T14:33:10.502Z,9.80
2023-03-26T14:35:35.410Z,9.60
2023-03-26T14:38:16.407Z,9.50
2023-03-26T14:40:58.446Z,9.50
2023-03-26T14:43:43.541Z,9.50
2023-03-26T14:46:07.585Z,9.90
2023-03-26T14:48:46.121Z,10.10
2023-03-26T14:51:09.159Z,10.40
2023-03-26T14:53:28.902Z,10.40
2023-03-26T14:56:09.056Z,10.50
2023-03-26T14:58:51.470Z,10.60
2023-03-26T15:01:28.727Z,10.60
2023-03-26T15:04:22.419Z,10.60
2023-03-26T15:07:25.878Z,10.80
2023-03-26T15:10:08.226Z,10.90
2023-03-26T15:12:28.395Z,10.80
2023-03-26T15:15:25.408Z,10.80
2023-03-26T15:17:48.960Z,10.50
2023-03-26T15:20:33.097Z,10.30
2023-03-26T15:23:26.001Z,10.40
2023-03-26T15:26:08.268Z,10.40
2023-03-26T15:29:01.232Z,10.30
2023-03-26T15:31:36.909Z,10.20
2023-03-26T15:34:31.960Z,10.20
2023-03-26T15:37:18.882Z,10.10
2023-03-26T15:40:05.693Z,9.80
2023-03-26T15:42:21.928Z,9.30
2023-03-26T15:44:53.077Z,8.70
2023-03-26T15:47:34.470Z,8.50
2023-03-26T15:49:48.111Z,8.30
2023-03-26T15:52:01.874Z,9.10
2023-03-26T15:54:23.773Z,6.90
2023-03-26T15:57:00.028Z,7.40
2023-03-26T15:59:17.941Z,9.10
2023-03-26T16:01:34.152Z,8.90
2023-03-26T16:03:50.364Z,8.90
2023-03-26T16:06:28.442Z,9.10
2023-03-26T16:08:47.159Z,7.70
2023-03-26T16:10:56.878Z,7.50
2023-03-26T16:13:39.930Z,6.90
2023-03-26T16:15:46.643Z,7.20
2023-03-26T16:18:23.034Z,7.90
2023-03-26T16:20:36.081Z,8.00
2023-03-26T16:22:59.783Z,7.70
2023-03-26T16:25:34.918Z,6.90
2023-03-26T16:27:40.951Z,8.40
2023-03-26T16:30:30.631Z,8.50
2023-03-26T16:32:39.125Z,7.80
2023-03-26T16:34:54.386Z,8.70
2023-03-26T16:37:02.446Z,8.70
2023-03-26T16:39:27.198Z,8.80
2023-03-26T16:41:34.846Z,7.80
2023-03-26T16:44:06.665Z,8.90
2023-03-26T16:46:26.329Z,8.50
2023-03-26T16:48:41.579Z,8.70
2023-03-26T16:50:53.368Z,7.70
2023-03-26T16:53:08.032Z,8.00
2023-03-26T16:55:28.741Z,8.60
2023-03-26T16:57:46.726Z,8.40
2023-03-26T17:00:32.520Z,8.00
2023-03-26T17:02:52.102Z,7.90
2023-03-26T17:05:09.867Z,8.70
2023-03-26T17:07:22.087Z,8.60
2023-03-26T17:09:44.250Z,8.50
2023-03-26T17:12:06.196Z,8.20
2023-03-26T17:14:28.576Z,7.70
2023-03-26T17:16:41.637Z,8.70
2023-03-26T17:18:55.880Z,8.10
2023-03-26T17:21:07.035Z,8.60
2023-03-26T17:23:38.370Z,8.60
2023-03-26T17:26:06.336Z,8.40
2023-03-26T17:28:35.498Z,7.60
2023-03-26T17:31:04.749Z,7.60
2023-03-26T17:33:23.358Z,8.50
2023-03-26T17:35:46.505Z,7.80
2023-03-26T17:37:52.503Z,8.20
2023-03-26T17:40:39.521Z,8.50
2023-03-26T17:43:04.599Z,7.60
2023-03-26T17:45:20.635Z,7.50
2023-03-26T17:47:41.308Z,7.60
2023-03-26T17:49:48.572Z,7.60
2023-03-26T17:51:58.411Z,7.60
2023-03-26T17:54:03.850Z,7.60
2023-03-26T17:56:17.492Z,7.70
2023-03-26T17:58:29.916Z,7.70
2023-03-26T18:00:44.330Z,7.70
2023-03-26T18:02:57.826Z,8.20
2023-03-26T18:05:04.764Z,7.80
2023-03-26T18:07:44.425Z,8.10
2023-03-26T18:10:19.073Z,7.90
2023-03-26T18:12:50.527Z,7.50
2023-03-26T18:15:24.453Z,7.30
2023-03-26T18:17:42.161Z,7.90
2023-03-26T18:19:51.874Z,8.00
2023-03-26T18:21:59.919Z,7.40
2023-03-26T18:24:06.274Z,7.90
2023-03-26T18:26:34.402Z,7.30
2023-03-26T18:28:47.599Z,8.20
2023-03-26T18:30:54.542Z,7.30
2023-03-26T18:33:06.088Z,7.80
2023-03-26T18:35:20.492Z,7.80
2023-03-26T18:37:30.265Z,8.00
2023-03-26T18:39:35.496Z,7.10
2023-03-26T18:41:47.632Z,8.00
2023-03-26T18:43:59.577Z,7.20
2023-03-26T18:46:06.430Z,7.30
2023-03-26T18:48:20.270Z,7.50
2023-03-26T18:50:31.831Z,7.40
2023-03-26T18:52:38.650Z,7.80
2023-03-26T18:54:44.032Z,7.50
2023-03-26T18:56:53.419Z,7.40
2023-03-26T18:59:02.625Z,7.30
2023-03-26T19:01:20.428Z,7.50
2023-03-26T19:03:35.710Z,7.30
2023-03-26T19:05:43.935Z,7.80
2023-03-26T19:07:49.755Z,7.90
2023-03-26T19:09:58.508Z,7.90
2023-03-26T19:12:25.371Z,8.10
2023-03-26T19:14:37.068Z,7.70
2023-03-26T19:16:44.324Z,8.00
2023-03-26T19:18:51.402Z,7.60
2023-03-26T19:21:00.325Z,7.40
2023-03-26T19:23:05.973Z,8.00
2023-03-26T19:25:24.359Z,7.90
2023-03-26T19:27:32.916Z,7.80
2023-03-26T19:29:39.457Z,8.00
2023-03-26T19:31:45.124Z,7.80
2023-03-26T19:34:00.637Z,8.20
2023-03-26T19:36:18.597Z,8.10
2023-03-26T19:38:29.771Z,8.20
2023-03-26T19:40:37.092Z,7.50
2023-03-26T19:42:47.568Z,7.80
2023-03-26T19:44:56.923Z,7.80
2023-03-26T19:47:08.583Z,7.90
2023-03-26T19:49:32.981Z,7.80
2023-03-26T19:51:40.288Z,7.30
2023-03-26T19:53:52.253Z,7.80
2023-03-26T19:56:01.168Z,7.80
2023-03-26T19:58:12.342Z,7.70
2023-03-26T20:00:19.212Z,7.10
2023-03-26T20:02:24.621Z,7.10
2023-03-26T20:04:32.558Z,7.70
2023-03-26T20:06:43.841Z,7.20
2023-03-26T20:08:50.693Z,7.30
2023-03-26T20:10:59.710Z,7.20
2023-03-26T20:13:04.920Z,7.40
2023-03-26T20:15:25.744Z,7.20
2023-03-26T20:17:31.201Z,7.50
2023-03-26T20:19:39.147Z,7.20
2023-03-26T20:21:45.003Z,7.20
2023-03-26T20:23:53.791Z,7.80
2023-03-26T20:25:59.295Z,7.30
2023-03-26T20:28:04.357Z,7.30
2023-03-26T20:30:13.898Z,7.40
2023-03-26T20:32:28.310Z,7.70
2023-03-26T20:34:33.976Z,7.40
2023-03-26T20:36:39.659Z,7.70
2023-03-26T20:38:46.049Z,7.80
2023-03-26T20:40:57.294Z,7.70
2023-03-26T20:43:05.249Z,7.40
2023-03-26T20:45:18.000Z,7.90
2023-03-26T20:47:25.931Z,7.90
2023-03-26T20:49:32.442Z,7.60
2023-03-26T20:51:38.221Z,7.80
2023-03-26T20:53:44.441Z,7.70
2023-03-26T20:55:51.690Z,7.40
2023-03-26T20:57:57.660Z,7.80
2023-03-26T21:00:11.639Z,7.60
2023-03-26T21:02:21.768Z,7.60
2023-03-26T21:04:32.269Z,7.50
2023-03-26T21:06:39.404Z,7.70
2023-03-26T21:08:51.131Z,7.40
2023-03-26T21:10:58.838Z,7.20
2023-03-26T21:13:09.131Z,7.30
2023-03-26T21:15:22.862Z,7.00
2023-03-26T21:17:31.217Z,7.50
2023-03-26T21:19:40.307Z,7.10
2023-03-26T21:22:04.878Z,7.30
2023-03-26T21:24:22.435Z,7.00
2023-03-26T21:26:41.572Z,7.00
2023-03-26T21:28:50.288Z,7.30
2023-03-26T21:30:56.349Z,7.50
2023-03-26T21:33:07.964Z,7.10
2023-03-26T21:35:20.377Z,7.20
2023-03-26T21:37:26.575Z,7.30
2023-03-26T21:39:32.765Z,6.90
2023-03-26T21:41:47.849Z,6.90
2023-03-26T21:43:54.385Z,6.80
2023-03-26T21:46:01.710Z,7.10
2023-03-26T21:48:08.564Z,6.90
2023-03-26T21:50:20.924Z,7.20
2023-03-26T21:52:26.872Z,7.00
2023-03-26T21:54:38.557Z,7.00
2023-03-26T21:56:55.447Z,6.80
2023-03-26T21:59:11.845Z,7.10
2023-03-26T22:01:30.588Z,6.90
2023-03-26T22:03:46.808Z,7.30
2023-03-26T22:06:02.637Z,7.10
2023-03-26T22:08:12.391Z,6.80
2023-03-26T22:10:20.260Z,6.70
2023-03-26T22:12:26.668Z,6.60
2023-03-26T22:14:31.767Z,6.60
2023-03-26T22:16:38.564Z,6.70
2023-03-26T22:18:46.473Z,6.70
2023-03-26T22:20:55.193Z,6.70
2023-03-26T22:23:02.008Z,6.60
2023-03-26T22:25:07.720Z,6.50
2023-03-26T22:27:16.145Z,6.50
2023-03-26T22:29:21.572Z,6.60
2023-03-26T22:31:28.097Z,6.40
2023-03-26T22:33:33.225Z,6.50
2023-03-26T22:35:38.614Z,6.10
2023-03-26T22:37:47.563Z,6.30
2023-03-26T22:39:52.995Z,6.10
2023-03-26T22:41:58.776Z,5.90
2023-03-26T22:44:16.909Z,6.00
2023-03-26T22:46:27.184Z,5.90
2023-03-26T22:48:34.023Z,6.00
2023-03-26T22:50:39.293Z,5.70
2023-03-26T22:52:49.910Z,5.60
2023-03-26T22:54:54.931Z,5.70
2023-03-26T22:57:00.394Z,5.80
2023-03-26T22:59:05.501Z,5.80
2023-03-26T23:01:14.649Z,5.60
2023-03-26T23:03:35.251Z,5.70
2023-03-26T23:05:40.680Z,5.60
2023-03-26T23:07:49.501Z,5.40
2023-03-26T23:09:54.577Z,5.40
2023-03-26T23:12:02.159Z,5.50
2023-03-26T23:14:09.995Z,5.70
2023-03-26T23:16:16.601Z,5.60
2023-03-26T23:18:22.526Z,5.60
2023-03-26T23:20:27.764Z,5.50
2023-03-26T23:22:35.672Z,5.50
2023-03-26T23:24:43.380Z,5.50
2023-03-26T23:26:51.368Z,5.50
2023-03-26T23:28:57.578Z,5.40
2023-03-26T23:31:04.994Z,5.30
2023-03-26T23:33:11.580Z,5.20
2023-03-26T23:35:17.058Z,5.20
2023-03-26T23:37:25.623Z,5.30
2023-03-26T23:39:33.740Z,5.20
2023-03-26T23:41:41.888Z,5.20
2023-03-26T23:43:54.472Z,5.20
2023-03-26T23:46:01.249Z,5.20
2023-03-26T23:48:07.272Z,5.20
2023-03-26T23:50:14.455Z,5.10
2023-03-26T23:52:19.794Z,5.10
2023-03-26T23:54:25.943Z,5.20
2023-03-26T23:56:32.272Z,5.10
2023-03-26T23:58:43.044Z,5.20
